Laukaa, Finland
Kieli:  Suomi
CurCond
Päivitetty02/08/2021 09:21 
 

Lähistön Lentoasemien Säätiloja:

 

EFJY - Jyvaskyla (mil/C,) Finland
Etäisyys Sääasemalta: PKo 21km
Päivitetty: 02/08/2021 09:20
Heikkoa sadetta, Kuurottaisia sateita, Enimmäkseen pilvistä
Heikkoa sadetta, Kuurottaisia sateita, Enimmäkseen pilvistä
 Tuulen suunta varies
Tuuli: varies 4 km/h
Lämpötila: 16°C
Kastepiste: 14°C
Ilmankosteus: 88%
Ilmanpaine: 1000 hPa
Yhteenveto: Heikkoa sadetta, Kuurottaisia sateita
Pilvisyys: Enimmäkseen pilvistä
Näkyvyys: 10 km
Pilvisyystiedot: Joitain Pilviä 274 m
Enimmäkseen pilvistä 1006 m
2021/08/02 06:20 EFJY 020620Z VRB02KT 9999 -SHRA FEW009 BKN033 16/14 Q1000
EFHA - Halli (fin-Afb), Finland
Etäisyys Sääasemalta: Lo 56km
Päivitetty: 02/08/2021 09:20
Enimmäkseen pilvistä
Enimmäkseen pilvistä
 Tuulen suunta E
Tuuli: E 9 km/h
Lämpötila: 15°C
Kastepiste: 14°C
Ilmankosteus: 94%
Ilmanpaine: 1000 hPa
Pilvisyys: Enimmäkseen pilvistä
Näkyvyys: 10 km
Pilvisyystiedot: Enimmäkseen pilvistä 244 m
2021/08/02 06:20 EFHA 020620Z 18005KT 150V210 9999 BKN008 15/14 Q1000
EFMI - Mikkeli, Finland
Etäisyys Sääasemalta: IKa 105km
Päivitetty: 02/08/2021 09:20
Joitain Pilviä
Joitain Pilviä
 Tuulen suunta ELo
Tuuli: ELo 7 km/h
Lämpötila: 17°C
Kastepiste: 15°C
Ilmankosteus: 88%
Ilmanpaine: 1001 hPa
Pilvisyys: Joitain Pilviä
Näkyvyys: 10 km
Pilvisyystiedot: Joitain Pilviä 244 m
2021/08/02 06:20 EFMI 020620Z AUTO 21004KT 150V250 9999 FEW008 17/15 Q1001
 
EFTP - Tampere/Pirkkala, Finland
Etäisyys Sääasemalta: Lo 135km
Päivitetty: 02/08/2021 09:20
Puolipilvistä
Puolipilvistä
 Tuulen suunta ELo
Tuuli: ELo 13 km/h
Lämpötila: 16°C
Kastepiste: 14°C
Ilmankosteus: 88%
Ilmanpaine: 1000 hPa
Pilvisyys: Puolipilvistä
Näkyvyys: 10 km
Pilvisyystiedot: Puolipilvistä 274 m
2021/08/02 06:20 EFTP 020620Z 20007KT 160V220 9999 SCT009 16/14 Q1000
EFKU - Kuopio (mil/Civ), Finland
Etäisyys Sääasemalta: Ko 146km
Päivitetty: 02/08/2021 09:20
Enimmäkseen pilvistä
Enimmäkseen pilvistä
 Tuulen suunta Lo
Tuuli: Lo 15 km/h
Lämpötila: 18°C
Kastepiste: 13°C
Ilmankosteus: 73%
Ilmanpaine: 1000 hPa
Pilvisyys: Enimmäkseen pilvistä
Näkyvyys: 10 km
Pilvisyystiedot: Joitain Pilviä 792 m
Enimmäkseen pilvistä 914 m
2021/08/02 06:20 EFKU 020620Z AUTO 23008KT 9999 FEW026 BKN030 18/13 Q1000
EFSI - Seinajoki-Ilmajo, Finland
Etäisyys Sääasemalta: LLu 149km
Päivitetty: 02/08/2021 09:20
Heikkoa sadetta, Pilvistä
Heikkoa sadetta, Pilvistä
 Tuulen suunta P
Tuuli: P 7 km/h
Lämpötila: 14°C
Kastepiste: 13°C
Ilmankosteus: 94%
Ilmanpaine: 1000 hPa
Yhteenveto: Light Rain
Pilvisyys: Pilvistä
Näkyvyys: 10 km
Pilvisyystiedot: Joitain Pilviä 183 m
Enimmäkseen pilvistä 518 m
Pilvistä 732 m
2021/08/02 06:20 EFSI 020620Z AUTO 35004KT 310V020 9999 -RA FEW006 BKN017 OVC024 14/13 Q1000